Time;durP1;ratioP1;P1;durP2;ratioP2;P2;SDS_P1;SDS_P2;PMS_P1;PMS_P2;Temp;Humidity;BMP_temperature;BMP_pressure;BME280_temperature;BME280_humidity;BME280_pressure;Samples;Min_cycle;Max_cycle;Signal;HPM_P1;HPM_P2
2023/04/28 00:00:24;;;;;;;0.00;0.00;;;;;;;6.50;69.48;100502.19;4994848;28;20275;-74
2023/04/28 00:02:49;;;;;;;0.00;0.00;;;;;;;6.48;69.16;100498.97;4994280;28;20185;-74
2023/04/28 00:05:15;;;;;;;0.10;0.10;;;;;;;6.44;68.70;100492.50;4993967;28;20247;-75
2023/04/28 00:07:40;;;;;;;0.90;0.90;;;;;;;6.40;68.62;100486.00;4994259;28;20189;-74
2023/04/28 00:10:06;;;;;;;0.10;0.10;;;;;;;6.39;68.70;100484.41;4986145;28;20186;-74
2023/04/28 00:12:31;;;;;;;0.00;0.00;;;;;;;6.39;68.86;100483.59;4994311;28;20277;-74
2023/04/28 00:14:56;;;;;;;0.37;0.37;;;;;;;6.39;68.66;100483.59;4994108;28;20253;-75
2023/04/28 00:17:22;;;;;;;0.00;0.00;;;;;;;6.28;68.82;100482.84;4994228;28;20711;-75
2023/04/28 00:19:48;;;;;;;0.00;0.00;;;;;;;6.35;69.23;100485.22;4993995;28;20209;-75
2023/04/28 00:22:14;;;;;;;0.47;0.20;;;;;;;6.29;69.80;100483.66;4991256;28;20746;-75
2023/04/28 00:24:40;;;;;;;0.00;0.00;;;;;;;6.38;69.94;100479.25;4972670;28;20184;-75
2023/04/28 00:27:06;;;;;;;0.00;0.00;;;;;;;6.37;69.77;100467.59;4992610;28;20744;-75
2023/04/28 00:29:31;;;;;;;0.03;0.03;;;;;;;6.43;69.64;100469.16;4993759;28;20209;-75
2023/04/28 00:31:56;;;;;;;0.00;0.00;;;;;;;6.47;69.95;100469.41;4993703;28;20276;-74
2023/04/28 00:34:22;;;;;;;0.00;0.00;;;;;;;6.51;69.67;100467.75;4993582;28;20191;-75
2023/04/28 00:36:47;;;;;;;0.00;0.00;;;;;;;6.48;70.24;100460.16;4993920;28;20181;-75
2023/04/28 00:39:13;;;;;;;0.00;0.00;;;;;;;6.35;70.78;100461.59;4992383;28;20344;-75
2023/04/28 00:41:38;;;;;;;0.13;0.13;;;;;;;6.33;71.31;100461.09;4993539;28;20192;-75
2023/04/28 00:44:04;;;;;;;0.10;0.10;;;;;;;6.46;71.39;100473.22;4993357;28;20189;-75
2023/04/28 00:46:31;;;;;;;0.00;0.00;;;;;;;6.54;71.41;100476.13;4993612;28;20225;-75
2023/04/28 00:48:57;;;;;;;0.87;0.33;;;;;;;6.58;71.97;100470.94;4993411;28;20284;-75
2023/04/28 00:51:22;;;;;;;0.00;0.00;;;;;;;6.53;71.64;100471.81;4992219;28;20275;-75
2023/04/28 00:53:47;;;;;;;0.00;0.00;;;;;;;6.56;72.13;100473.94;4993344;28;20191;-74
2023/04/28 00:56:13;;;;;;;0.00;0.00;;;;;;;6.61;72.14;100464.94;4993385;28;20581;-75
2023/04/28 00:58:40;;;;;;;0.00;0.00;;;;;;;6.66;72.72;100464.09;4993294;28;20209;-75
2023/04/28 01:01:06;;;;;;;0.00;0.00;;;;;;;6.68;73.52;100461.91;4993276;28;20208;-75
2023/04/28 01:03:37;;;;;;;0.00;0.00;;;;;;;6.68;73.72;100464.63;4992928;28;20180;-75
2023/04/28 01:06:04;;;;;;;0.00;0.00;;;;;;;6.65;73.50;100459.75;4993472;28;20213;-75
2023/04/28 01:08:31;;;;;;;0.00;0.00;;;;;;;6.52;72.96;100444.94;4992945;28;20209;-75
2023/04/28 01:10:56;;;;;;;0.00;0.00;;;;;;;6.65;73.02;100451.59;4993086;28;20288;-75
2023/04/28 01:13:22;;;;;;;0.00;0.00;;;;;;;6.65;73.13;100452.41;4993237;28;20693;-75
2023/04/28 01:15:47;;;;;;;0.00;0.00;;;;;;;6.77;73.46;100449.31;4993031;28;20264;-75
2023/04/28 01:18:14;;;;;;;0.00;0.00;;;;;;;6.79;72.96;100430.84;4992882;28;20792;-75
2023/04/28 01:20:40;;;;;;;0.00;0.00;;;;;;;6.84;72.97;100430.81;4993131;28;20671;-75
2023/04/28 01:23:14;;;;;;;0.00;0.00;;;;;;;6.85;73.02;100430.50;4991667;28;20189;-75
2023/04/28 01:25:40;;;;;;;0.00;0.00;;;;;;;6.75;72.78;100430.59;4992751;28;20212;-75
2023/04/28 01:28:05;;;;;;;0.00;0.00;;;;;;;6.83;72.61;100434.63;4992770;28;20690;-75
2023/04/28 01:30:31;;;;;;;0.17;0.17;;;;;;;6.87;72.81;100441.09;4991502;28;20220;-75
2023/04/28 01:32:57;;;;;;;0.00;0.00;;;;;;;6.89;73.16;100433.47;4992764;28;20255;-75
2023/04/28 01:35:22;;;;;;;0.00;0.00;;;;;;;6.86;73.21;100429.41;4991376;28;20185;-75
2023/04/28 01:37:48;;;;;;;0.00;0.00;;;;;;;6.79;74.09;100428.13;4992681;28;20185;-74
2023/04/28 01:40:13;;;;;;;0.00;0.00;;;;;;;6.84;74.49;100437.03;4992624;28;20657;-74
2023/04/28 01:42:38;;;;;;;0.00;0.00;;;;;;;6.83;74.50;100426.47;4992566;28;20203;-74
2023/04/28 01:45:04;;;;;;;0.00;0.00;;;;;;;6.72;74.87;100419.50;4992224;28;20601;-74
2023/04/28 01:47:30;;;;;;;0.00;0.00;;;;;;;6.55;75.21;100419.94;4992686;28;20204;-74
2023/04/28 01:49:55;;;;;;;0.00;0.00;;;;;;;6.53;75.72;100424.84;4992627;28;20189;-74
2023/04/28 01:52:23;;;;;;;0.00;0.00;;;;;;;6.52;76.48;100418.63;4992629;28;20212;-74
2023/04/28 01:54:48;;;;;;;0.93;0.93;;;;;;;6.52;76.51;100420.53;4991045;28;20264;-74
2023/04/28 01:57:14;;;;;;;0.00;0.00;;;;;;;6.38;77.07;100409.50;4992486;28;20267;-74
2023/04/28 01:59:39;;;;;;;0.20;0.20;;;;;;;6.33;77.65;100408.72;4992535;28;20201;-74
2023/04/28 02:02:05;;;;;;;0.00;0.00;;;;;;;6.22;78.09;100402.56;4992416;28;20204;-75
2023/04/28 02:04:30;;;;;;;0.10;0.10;;;;;;;6.03;78.47;100398.91;4991172;28;20556;-75
2023/04/28 02:06:55;;;;;;;0.00;0.00;;;;;;;5.91;77.97;100383.81;4992409;28;20215;-74
2023/04/28 02:09:21;;;;;;;0.00;0.00;;;;;;;5.94;78.01;100385.97;4992262;28;20766;-74
2023/04/28 02:11:46;;;;;;;0.00;0.00;;;;;;;5.94;78.69;100385.97;4992431;28;20193;-75
2023/04/28 02:14:11;;;;;;;0.00;0.00;;;;;;;5.93;78.61;100383.53;4991305;28;20203;-74
2023/04/28 02:16:36;;;;;;;0.00;0.00;;;;;;;5.94;79.10;100385.97;4992413;28;20189;-75
2023/04/28 02:19:02;;;;;;;0.00;0.00;;;;;;;5.76;78.87;100377.66;4992292;28;20241;-74
2023/04/28 02:21:27;;;;;;;0.00;0.00;;;;;;;5.78;79.21;100389.81;4994666;28;20223;-75
2023/04/28 02:23:52;;;;;;;1.70;1.60;;;;;;;5.95;79.64;100397.63;4996012;28;20191;-75
2023/04/28 02:26:18;;;;;;;0.00;0.00;;;;;;;5.97;79.53;100388.13;4996204;28;20208;-74
2023/04/28 02:28:43;;;;;;;0.00;0.00;;;;;;;5.96;79.84;100383.78;4996216;28;20262;-74
2023/04/28 02:31:10;;;;;;;0.00;0.00;;;;;;;5.80;80.17;100374.13;4996050;28;20263;-74
2023/04/28 02:33:36;;;;;;;0.00;0.00;;;;;;;5.70;80.55;100366.03;4996062;28;20264;-74
2023/04/28 02:36:04;;;;;;;0.00;0.00;;;;;;;5.67;80.29;100367.41;4996052;28;20227;-75
2023/04/28 02:38:30;;;;;;;0.00;0.00;;;;;;;5.67;80.78;100356.56;4994633;28;20209;-75
2023/04/28 02:41:07;;;;;;;0.00;0.00;;;;;;;5.73;81.02;100351.91;4987958;28;20195;-75
2023/04/28 02:43:33;;;;;;;0.37;0.33;;;;;;;5.74;81.32;100345.41;4995671;28;20181;-75
2023/04/28 02:45:59;;;;;;;0.13;0.13;;;;;;;5.60;80.98;100334.38;4995765;28;20216;-75
2023/04/28 02:48:25;;;;;;;0.00;0.00;;;;;;;5.62;80.87;100336.81;4995491;28;20554;-75
2023/04/28 02:50:51;;;;;;;1.40;0.47;;;;;;;5.56;80.70;100332.53;4995779;28;20193;-74
2023/04/28 02:53:17;;;;;;;0.60;0.60;;;;;;;5.50;80.33;100336.38;4995662;28;20188;-75
2023/04/28 02:55:43;;;;;;;0.00;0.00;;;;;;;5.52;80.50;100340.41;4995340;28;20639;-75
2023/04/28 02:58:08;;;;;;;0.00;0.00;;;;;;;5.54;80.98;100337.41;4995237;28;20239;-75
2023/04/28 03:00:33;;;;;;;1.17;1.17;;;;;;;5.58;81.68;100336.56;4995267;28;20189;-74
2023/04/28 03:02:59;;;;;;;0.00;0.00;;;;;;;5.60;81.30;100333.56;4993950;28;20232;-75
2023/04/28 03:05:24;;;;;;;0.00;0.00;;;;;;;5.52;81.57;100326.06;4995235;28;20261;-75
2023/04/28 03:07:51;;;;;;;0.00;0.00;;;;;;;5.48;81.53;100322.25;4995393;28;20565;-74
2023/04/28 03:10:16;;;;;;;1.70;0.30;;;;;;;5.32;81.74;100313.41;4995357;28;20259;-75
2023/04/28 03:12:41;;;;;;;0.10;0.10;;;;;;;5.20;81.70;100310.22;4995320;28;20658;-75
2023/04/28 03:15:07;;;;;;;0.00;0.00;;;;;;;5.13;81.51;100310.56;4995067;28;20219;-74
2023/04/28 03:17:35;;;;;;;0.00;0.00;;;;;;;5.12;81.81;100308.94;4995178;28;20557;-74
2023/04/28 03:20:01;;;;;;;0.00;0.00;;;;;;;5.06;81.57;100302.75;4993583;28;20199;-74
2023/04/28 03:22:26;;;;;;;0.00;0.00;;;;;;;5.11;82.15;100304.59;4993791;28;20189;-75
2023/04/28 03:24:51;;;;;;;0.00;0.00;;;;;;;5.17;82.39;100303.47;4993623;28;20231;-74
2023/04/28 03:27:17;;;;;;;0.00;0.00;;;;;;;5.25;82.58;100312.94;4993878;28;20213;-75
2023/04/28 03:29:42;;;;;;;0.00;0.00;;;;;;;5.15;82.25;100302.94;4994811;28;20539;-75
2023/04/28 03:32:08;;;;;;;0.00;0.00;;;;;;;5.10;82.30;100294.88;4993184;28;20676;-74
2023/04/28 03:34:33;;;;;;;0.00;0.00;;;;;;;5.10;82.65;100296.75;4994768;28;20872;-74
2023/04/28 03:36:58;;;;;;;0.07;0.07;;;;;;;5.01;82.24;100289.22;4995057;28;20693;-74
2023/04/28 03:39:24;;;;;;;0.00;0.00;;;;;;;4.91;82.42;100283.03;4994867;28;20213;-74
2023/04/28 03:41:49;;;;;;;0.00;0.00;;;;;;;4.94;83.03;100286.00;4994847;28;20283;-74
2023/04/28 03:44:15;;;;;;;0.00;0.00;;;;;;;5.01;83.62;100289.22;4994507;28;20181;-74
2023/04/28 03:46:40;;;;;;;0.00;0.00;;;;;;;5.04;83.67;100285.94;4994674;28;20189;-74
2023/04/28 03:49:05;;;;;;;0.00;0.00;;;;;;;4.94;83.94;100279.78;4994816;28;20208;-74
2023/04/28 03:51:31;;;;;;;0.00;0.00;;;;;;;5.07;84.04;100281.88;4993347;28;20185;-74
2023/04/28 03:53:57;;;;;;;0.40;0.40;;;;;;;4.95;83.93;100273.28;4993252;28;20181;-74
2023/04/28 03:56:23;;;;;;;0.00;0.00;;;;;;;4.98;83.89;100281.66;4994669;28;20196;-75
2023/04/28 03:58:48;;;;;;;0.00;0.00;;;;;;;5.03;84.10;100278.91;4994471;28;20205;-74
2023/04/28 04:01:13;;;;;;;0.00;0.00;;;;;;;5.08;84.65;100275.38;4993486;28;20234;-75
2023/04/28 04:03:39;;;;;;;0.00;0.00;;;;;;;5.12;84.59;100271.03;4994222;28;20178;-75
2023/04/28 04:06:05;;;;;;;0.00;0.00;;;;;;;4.87;84.73;100266.53;4994419;28;20208;-75
2023/04/28 04:08:32;;;;;;;0.10;0.10;;;;;;;4.62;84.67;100262.03;4994405;28;20735;-75
2023/04/28 04:10:57;;;;;;;0.00;0.00;;;;;;;4.54;85.30;100265.31;4986260;28;20626;-74
2023/04/28 04:13:23;;;;;;;0.00;0.00;;;;;;;4.72;85.23;100278.25;4994231;28;20208;-75
2023/04/28 04:15:49;;;;;;;0.00;0.00;;;;;;;4.93;85.13;100262.72;4994088;28;20203;-75
2023/04/28 04:18:14;;;;;;;0.00;0.00;;;;;;;5.13;85.45;100261.81;4993880;28;20205;-74
2023/04/28 04:20:40;;;;;;;0.00;0.00;;;;;;;5.04;84.92;100247.22;4993946;28;20236;-75
2023/04/28 04:23:05;;;;;;;0.10;0.10;;;;;;;5.03;84.56;100245.59;4993991;28;20188;-75
2023/04/28 04:25:31;;;;;;;0.00;0.00;;;;;;;4.82;83.84;100244.91;4993791;28;20197;-74
2023/04/28 04:27:57;;;;;;;0.00;0.00;;;;;;;4.97;84.25;100250.25;4993986;28;20196;-74
2023/04/28 04:30:22;;;;;;;0.00;0.00;;;;;;;4.93;84.19;100248.38;4994008;28;20211;-74
2023/04/28 04:32:48;;;;;;;0.00;0.00;;;;;;;4.91;84.40;100250.53;4993857;28;20189;-75
2023/04/28 04:35:13;;;;;;;0.30;0.30;;;;;;;4.87;83.67;100236.75;4993487;28;20280;-75
2023/04/28 04:37:39;;;;;;;0.00;0.00;;;;;;;4.88;83.04;100240.28;4993773;28;20181;-74
2023/04/28 04:40:06;;;;;;;0.00;0.00;;;;;;;4.95;83.17;100238.91;4993688;28;20193;-75
2023/04/28 04:42:31;;;;;;;0.00;0.00;;;;;;;5.00;83.68;100238.06;4991428;28;20618;-75
2023/04/28 04:44:57;;;;;;;9.70;9.13;;;;;;;5.05;83.58;100240.72;4993367;28;20181;-74
2023/04/28 04:47:22;;;;;;;0.53;0.53;;;;;;;5.15;83.49;100246.09;4993608;28;20840;-75
2023/04/28 04:49:49;;;;;;;0.00;0.00;;;;;;;5.24;83.13;100249.03;4992208;28;20201;-74
2023/04/28 04:52:14;;;;;;;0.00;0.00;;;;;;;5.35;82.95;100248.69;4993510;28;20432;-75
2023/04/28 04:54:40;;;;;;;0.00;0.00;;;;;;;5.37;82.51;100242.97;4993191;28;20260;-74
2023/04/28 04:57:05;;;;;;;0.00;0.00;;;;;;;5.40;82.15;100239.69;4993435;28;20704;-75
2023/04/28 04:59:31;;;;;;;0.00;0.00;;;;;;;5.47;82.05;100239.38;4993436;28;20192;-75
2023/04/28 05:01:56;;;;;;;0.00;0.00;;;;;;;5.55;81.90;100239.59;4991943;28;20523;-75
2023/04/28 05:04:22;;;;;;;0.00;0.00;;;;;;;5.49;82.20;100234.47;4993149;28;20177;-74
2023/04/28 05:06:47;;;;;;;0.20;0.20;;;;;;;5.39;82.73;100238.09;4993195;28;20211;-74
2023/04/28 05:09:12;;;;;;;0.00;0.00;;;;;;;5.44;83.23;100229.09;4993058;28;20212;-74
2023/04/28 05:11:37;;;;;;;1.17;1.17;;;;;;;5.54;83.50;100224.41;4993147;28;20188;-75
2023/04/28 05:14:03;;;;;;;0.03;0.03;;;;;;;5.64;83.68;100227.06;4992975;28;20669;-75
2023/04/28 05:16:28;;;;;;;0.00;0.00;;;;;;;5.73;83.93;100224.53;4993087;28;20538;-75
2023/04/28 05:18:54;;;;;;;0.00;0.00;;;;;;;5.78;84.26;100235.31;4991714;28;20682;-74
2023/04/28 05:21:19;;;;;;;0.00;0.00;;;;;;;5.73;83.54;100221.81;4993055;28;20319;-74
2023/04/28 05:23:44;;;;;;;0.00;0.00;;;;;;;5.68;83.82;100219.16;4992888;28;20182;-74
2023/04/28 05:26:10;;;;;;;0.00;0.00;;;;;;;5.63;84.39;100221.88;4993052;28;20215;-75
2023/04/28 05:28:35;;;;;;;0.00;0.00;;;;;;;5.58;84.65;100220.03;4992772;28;20201;-75
2023/04/28 05:31:01;;;;;;;0.00;0.00;;;;;;;5.61;85.55;100227.59;4992808;28;20173;-75
2023/04/28 05:33:26;;;;;;;0.00;0.00;;;;;;;5.65;85.20;100222.44;4992364;28;20649;-75
2023/04/28 05:35:51;;;;;;;24.97;6.30;;;;;;;5.73;84.85;100224.53;4992604;28;20180;-74
2023/04/28 05:38:17;;;;;;;0.47;0.47;;;;;;;5.91;84.50;100221.13;4991402;28;20204;-75
2023/04/28 05:40:42;;;;;;;0.00;0.00;;;;;;;6.06;83.97;100220.16;4992815;28;20701;-74
2023/04/28 05:43:07;;;;;;;0.43;0.43;;;;;;;6.05;82.87;100213.13;4991193;28;20189;-75
2023/04/28 05:45:33;;;;;;;0.00;0.00;;;;;;;6.04;81.72;100205.28;4992444;28;20196;-75
2023/04/28 05:47:59;;;;;;;0.00;0.00;;;;;;;6.15;81.29;100206.81;4992586;28;20254;-75
2023/04/28 05:50:24;;;;;;;0.00;0.00;;;;;;;6.17;81.13;100208.13;4992582;28;20193;-75
2023/04/28 05:52:49;;;;;;;0.00;0.00;;;;;;;6.29;80.82;100199.59;4992661;28;20239;-75
2023/04/28 05:55:15;;;;;;;0.00;0.00;;;;;;;6.26;80.32;100190.13;4992166;28;20173;-75
2023/04/28 05:57:40;;;;;;;4.03;1.00;;;;;;;6.22;80.45;100194.53;4992541;28;20574;-75
2023/04/28 06:00:06;;;;;;;0.00;0.00;;;;;;;6.24;80.62;100192.31;4992410;28;20601;-75
2023/04/28 06:02:32;;;;;;;0.00;0.00;;;;;;;6.28;80.68;100189.84;4992617;28;20192;-75
2023/04/28 06:04:57;;;;;;;0.20;0.20;;;;;;;6.51;80.55;100188.22;4991808;28;20184;-75
2023/04/28 06:07:22;;;;;;;0.00;0.00;;;;;;;6.66;79.70;100182.59;4992506;28;20597;-75
2023/04/28 06:09:49;;;;;;;0.03;0.03;;;;;;;6.74;79.17;100175.69;4992229;28;20773;-75
2023/04/28 06:12:14;;;;;;;0.43;0.43;;;;;;;6.83;78.97;100169.31;4991079;28;20271;-75
2023/04/28 06:14:39;;;;;;;1.00;0.87;;;;;;;6.89;78.79;100171.97;4992043;28;20212;-75
2023/04/28 06:17:05;;;;;;;0.00;0.00;;;;;;;6.94;78.75;100182.72;4992301;28;20177;-75
2023/04/28 06:19:30;;;;;;;0.77;0.40;;;;;;;6.96;78.57;100173.22;4992266;28;20200;-76
2023/04/28 06:21:56;;;;;;;0.23;0.23;;;;;;;6.88;78.57;100173.88;4992221;28;20670;-76
2023/04/28 06:24:21;;;;;;;0.00;0.00;;;;;;;6.85;78.52;100171.75;4992119;28;20189;-75
2023/04/28 06:26:46;;;;;;;0.00;0.00;;;;;;;6.98;79.34;100173.72;4992313;28;20213;-76
2023/04/28 06:29:12;;;;;;;0.00;0.00;;;;;;;7.18;79.14;100179.94;4992189;28;20201;-75
2023/04/28 06:31:37;;;;;;;0.00;0.00;;;;;;;7.25;79.00;100167.63;4992320;28;20196;-75
2023/04/28 06:34:02;;;;;;;0.00;0.00;;;;;;;7.27;78.47;100157.25;4990518;28;20220;-75
2023/04/28 06:36:28;;;;;;;0.10;0.10;;;;;;;7.47;79.09;100172.41;4992136;28;20192;-75
2023/04/28 06:38:53;;;;;;;0.00;0.00;;;;;;;7.55;78.10;100165.50;4992194;28;20280;-75
2023/04/28 06:41:19;;;;;;;0.00;0.00;;;;;;;7.68;78.04;100170.16;4991992;28;20565;-75
2023/04/28 06:43:44;;;;;;;0.00;0.00;;;;;;;7.84;77.57;100179.66;4992028;28;20185;-75
2023/04/28 06:46:12;;;;;;;0.00;0.00;;;;;;;7.93;76.90;100186.00;4983993;28;20220;-75
2023/04/28 06:48:37;;;;;;;0.00;0.00;;;;;;;7.96;76.21;100180.00;4992060;28;20249;-75
2023/04/28 06:51:03;;;;;;;0.00;0.00;;;;;;;7.84;75.78;100179.66;4990855;28;20212;-75
2023/04/28 06:53:29;;;;;;;0.10;0.10;;;;;;;7.83;74.67;100179.97;4992000;28;20192;-75
2023/04/28 06:55:55;;;;;;;0.00;0.00;;;;;;;7.69;74.17;100167.16;4991837;28;20584;-75
2023/04/28 06:58:20;;;;;;;0.10;0.10;;;;;;;7.71;74.77;100166.84;4991916;28;20201;-75
2023/04/28 07:00:46;;;;;;;0.60;0.60;;;;;;;7.67;74.71;100172.09;4992617;28;20255;-78
2023/04/28 07:03:11;;;;;;;0.60;0.60;;;;;;;7.68;74.58;100165.53;4993165;28;20193;-78
2023/04/28 07:05:36;;;;;;;3.87;2.80;;;;;;;7.78;74.96;100159.09;4993151;28;20304;-75
2023/04/28 07:08:02;;;;;;;0.10;0.10;;;;;;;7.85;74.14;100156.00;4995295;28;20232;-74
2023/04/28 07:10:28;;;;;;;0.00;0.00;;;;;;;7.92;74.75;100157.19;4994267;28;20188;-75
2023/04/28 07:12:53;;;;;;;0.00;0.00;;;;;;;8.04;74.37;100148.56;4995460;28;20554;-75
2023/04/28 07:15:18;;;;;;;0.00;0.00;;;;;;;8.27;74.76;100152.19;4995093;28;20213;-74
2023/04/28 07:17:44;;;;;;;0.00;0.00;;;;;;;8.31;74.20;100148.56;4995245;28;20264;-75
2023/04/28 07:20:10;;;;;;;0.63;0.63;;;;;;;8.37;73.86;100145.75;4995198;28;20187;-75
2023/04/28 07:22:35;;;;;;;0.00;0.00;;;;;;;8.51;73.56;100147.34;4995237;28;20214;-75
2023/04/28 07:25:01;;;;;;;0.00;0.00;;;;;;;8.69;73.67;100144.81;4994865;28;20239;-75
2023/04/28 07:27:26;;;;;;;3.27;3.07;;;;;;;8.83;72.34;100146.41;4995132;28;20638;-75
2023/04/28 07:29:51;;;;;;;0.93;0.93;;;;;;;8.97;71.68;100146.34;4993794;28;20208;-75
2023/04/28 07:32:17;;;;;;;0.10;0.10;;;;;;;8.90;69.55;100124.16;4994907;28;20547;-75
2023/04/28 07:34:42;;;;;;;1.10;1.10;;;;;;;8.87;70.38;100133.75;4993522;28;20189;-74
2023/04/28 07:37:08;;;;;;;0.00;0.00;;;;;;;9.05;69.51;100128.44;4993712;28;20552;-74
2023/04/28 07:39:34;;;;;;;1.47;1.37;;;;;;;9.05;67.93;100120.28;4994874;28;20237;-74
2023/04/28 07:42:01;;;;;;;1.33;0.53;;;;;;;9.18;68.28;100117.50;4984814;28;20284;-74
2023/04/28 07:44:27;;;;;;;0.00;0.00;;;;;;;9.45;69.19;100127.44;4975208;28;20196;-74
2023/04/28 07:46:52;;;;;;;0.00;0.00;;;;;;;9.56;68.88;100132.66;4991338;28;20213;-75
2023/04/28 07:49:17;;;;;;;1.23;1.23;;;;;;;9.66;67.83;100116.81;4994597;28;20215;-75
2023/04/28 07:51:43;;;;;;;2.03;1.90;;;;;;;9.71;66.53;100116.69;4986680;28;20185;-75
2023/04/28 07:54:08;;;;;;;0.70;0.70;;;;;;;9.59;66.07;100100.09;4994389;28;20185;-75
2023/04/28 07:56:33;;;;;;;0.63;0.53;;;;;;;9.71;66.93;100111.25;5012962;23;20239;-80
2023/04/28 07:58:59;;;;;;;1.97;1.70;;;;;;;9.80;66.53;100100.34;5007203;28;20208;-81
2023/04/28 08:01:24;;;;;;;0.00;0.00;;;;;;;9.91;67.17;100104.41;5007750;28;20205;-78
2023/04/28 08:03:50;;;;;;;1.20;0.83;;;;;;;9.83;66.35;100088.78;5016202;28;20267;-80
2023/04/28 08:06:15;;;;;;;2.93;1.80;;;;;;;9.85;66.26;100089.31;5013527;28;20220;-82
2023/04/28 08:08:41;;;;;;;0.00;0.00;;;;;;;10.06;67.23;100097.72;5002709;28;20188;-84
2023/04/28 08:11:07;;;;;;;0.33;0.33;;;;;;;10.16;66.84;100099.38;5013561;28;20354;-80
2023/04/28 08:13:32;;;;;;;0.97;0.83;;;;;;;10.16;66.59;100083.00;5013369;28;20327;-81
2023/04/28 08:16:00;;;;;;;0.60;0.30;;;;;;;10.30;66.69;100089.16;5014780;28;20251;-81
2023/04/28 08:18:27;;;;;;;0.23;0.23;;;;;;;10.45;66.61;100091.44;5015044;28;20578;-82
2023/04/28 08:20:53;;;;;;;0.33;0.33;;;;;;;10.69;67.48;100099.97;5013324;28;20204;-76
2023/04/28 08:23:19;;;;;;;0.53;0.53;;;;;;;10.79;66.22;100098.03;5013651;28;20195;-77
2023/04/28 08:25:45;;;;;;;0.97;0.97;;;;;;;10.76;66.02;100094.03;5011991;28;20210;-77
2023/04/28 08:28:11;;;;;;;0.97;0.87;;;;;;;10.78;66.46;100089.03;5011098;28;20189;-76
2023/04/28 08:30:37;;;;;;;0.70;0.70;;;;;;;10.85;66.55;100094.00;5012128;28;20211;-77
2023/04/28 08:33:03;;;;;;;0.03;0.03;;;;;;;10.88;65.61;100096.13;5027161;28;20674;-77
2023/04/28 08:35:29;;;;;;;2.07;1.87;;;;;;;10.72;66.13;100093.88;5011666;28;20219;-77
2023/04/28 08:37:54;;;;;;;0.50;0.50;;;;;;;10.57;66.24;100096.28;5012118;28;20184;-77
2023/04/28 08:40:20;;;;;;;0.77;0.77;;;;;;;10.73;66.42;100089.22;5010769;28;20238;-77
2023/04/28 08:42:46;;;;;;;2.83;2.63;;;;;;;10.91;66.54;100092.75;5012268;28;20176;-77
2023/04/28 08:45:15;;;;;;;1.00;1.00;;;;;;;10.90;65.94;100086.47;5011417;28;20188;-77
2023/04/28 08:47:44;;;;;;;0.67;0.67;;;;;;;10.95;65.57;100082.75;5012169;28;20184;-77
2023/04/28 08:50:14;;;;;;;0.30;0.30;;;;;;;11.06;66.13;100091.44;5010704;28;20716;-77
2023/04/28 08:52:41;;;;;;;0.20;0.20;;;;;;;11.03;65.36;100081.97;5010878;28;20184;-77
2023/04/28 08:55:08;;;;;;;0.50;0.50;;;;;;;11.17;66.08;100099.00;5011626;28;20184;-77
2023/04/28 08:57:44;;;;;;;0.20;0.20;;;;;;;11.12;66.14;100085.47;5014651;28;20238;-76
2023/04/28 09:00:11;;;;;;;1.67;1.57;;;;;;;11.16;66.70;100080.19;5020117;28;20180;-77
2023/04/28 09:02:36;;;;;;;2.10;1.77;;;;;;;11.10;65.70;100071.34;5018197;28;20243;-77
2023/04/28 09:05:05;;;;;;;2.03;0.87;;;;;;;11.29;65.92;100082.75;5011489;28;20208;-77
2023/04/28 09:07:31;;;;;;;1.40;1.40;;;;;;;11.49;66.62;100083.97;5011874;28;20271;-77
2023/04/28 09:10:16;;;;;;;2.27;2.07;;;;;;;11.55;66.49;100068.97;5011403;28;20271;-77
2023/04/28 09:12:41;;;;;;;0.20;0.20;;;;;;;11.76;65.77;100080.03;5011589;28;20172;-77
2023/04/28 09:15:08;;;;;;;0.53;0.53;;;;;;;11.85;66.07;100061.63;5010855;28;20266;-77
2023/04/28 09:17:48;;;;;;;0.30;0.30;;;;;;;11.66;65.28;100065.88;5010196;28;20193;-77
2023/04/28 09:20:24;;;;;;;1.13;1.03;;;;;;;11.70;65.01;100053.94;5011455;28;20203;-77
2023/04/28 09:22:52;;;;;;;0.63;0.63;;;;;;;11.62;64.98;100054.81;5011603;28;20185;-77
2023/04/28 09:25:20;;;;;;;1.47;1.37;;;;;;;11.67;65.39;100054.59;5008974;28;20246;-77
2023/04/28 09:27:45;;;;;;;2.43;2.13;;;;;;;11.62;65.42;100049.31;5011392;28;20192;-77
2023/04/28 09:30:11;;;;;;;0.00;0.00;;;;;;;11.69;65.59;100051.53;5010609;28;20192;-77
2023/04/28 09:32:37;;;;;;;0.10;0.10;;;;;;;11.83;65.02;100031.06;5011937;28;20232;-77
2023/04/28 09:35:03;;;;;;;0.30;0.30;;;;;;;11.86;64.07;100032.31;5012198;28;20185;-77
2023/04/28 09:37:30;;;;;;;1.77;1.63;;;;;;;11.92;64.67;100031.03;5011102;28;20191;-77
2023/04/28 09:39:57;;;;;;;0.93;0.93;;;;;;;12.04;64.80;100047.56;5012158;28;20180;-77
2023/04/28 09:42:42;;;;;;;2.60;1.70;;;;;;;12.21;63.88;100035.69;5010131;28;20196;-77
2023/04/28 09:45:12;;;;;;;1.83;1.10;;;;;;;12.37;63.85;100031.22;5010559;28;20192;-77
2023/04/28 09:47:40;;;;;;;0.57;0.57;;;;;;;12.34;63.88;100031.91;5009731;28;20192;-77
2023/04/28 09:50:10;;;;;;;0.17;0.17;;;;;;;12.34;63.51;100026.41;5011207;28;20181;-77
2023/04/28 09:52:36;;;;;;;0.00;0.00;;;;;;;12.52;64.28;100022.41;5011257;28;20233;-77
2023/04/28 09:55:05;;;;;;;0.00;0.00;;;;;;;12.82;65.26;100036.81;5009251;28;20191;-77
2023/04/28 09:57:32;;;;;;;0.13;0.13;;;;;;;13.04;63.79;100024.69;5025979;28;20176;-77
2023/04/28 09:59:58;;;;;;;0.00;0.00;;;;;;;13.02;62.89;100015.19;5010829;28;20188;-76
2023/04/28 10:02:24;;;;;;;0.47;0.47;;;;;;;12.81;62.32;100001.53;5010948;28;20291;-76
2023/04/28 10:04:53;;;;;;;0.57;0.57;;;;;;;12.95;63.24;100023.97;5008825;28;20220;-77
2023/04/28 10:07:21;;;;;;;1.60;1.27;;;;;;;12.72;62.77;100015.28;5008175;28;20208;-77
2023/04/28 10:09:49;;;;;;;0.07;0.07;;;;;;;12.87;63.29;100027.56;5010116;28;20295;-77
2023/04/28 10:12:16;;;;;;;0.60;0.53;;;;;;;12.69;63.13;100017.91;5009284;28;20753;-77
2023/04/28 10:14:43;;;;;;;2.83;1.10;;;;;;;12.77;63.81;100026.06;5010527;28;20616;-77
2023/04/28 10:17:10;;;;;;;0.37;0.37;;;;;;;12.62;64.23;100034.09;5010871;28;20251;-76
2023/04/28 10:19:36;;;;;;;0.00;0.00;;;;;;;12.78;63.77;100035.09;5009847;28;20215;-77
2023/04/28 10:22:31;;;;;;;0.00;0.00;;;;;;;12.79;64.46;100031.22;5009477;28;20204;-76
2023/04/28 10:25:11;;;;;;;0.00;0.00;;;;;;;12.66;64.49;100030.34;5010382;28;20186;-77
2023/04/28 10:27:45;;;;;;;0.43;0.43;;;;;;;12.60;64.68;100034.44;5010834;28;20186;-77
2023/04/28 10:30:11;;;;;;;0.00;0.00;;;;;;;12.71;66.56;100046.59;5025867;28;20814;-76
2023/04/28 10:32:36;;;;;;;0.80;0.80;;;;;;;12.73;65.82;100038.84;5010516;28;20304;-77
2023/04/28 10:35:20;;;;;;;0.97;0.93;;;;;;;12.78;65.14;100032.34;5008451;28;20198;-77
2023/04/28 10:38:12;;;;;;;2.73;0.87;;;;;;;12.73;63.54;100022.41;5009345;28;20188;-77
2023/04/28 10:40:43;;;;;;;0.30;0.30;;;;;;;12.53;64.58;100023.19;5011340;28;20201;-77
2023/04/28 10:43:11;;;;;;;0.00;0.00;;;;;;;12.37;65.59;100024.94;5014181;28;20705;-77
2023/04/28 10:45:48;;;;;;;0.00;0.00;;;;;;;12.42;67.12;100033.75;5013797;28;20196;-77
2023/04/28 10:48:14;;;;;;;0.00;0.00;;;;;;;12.52;66.23;100032.56;5014656;28;20184;-77
2023/04/28 10:51:02;;;;;;;0.00;0.00;;;;;;;12.74;66.25;100032.22;5013212;28;20666;-77
2023/04/28 10:53:45;;;;;;;0.00;0.00;;;;;;;12.65;67.06;100033.44;5014226;28;20188;-76
2023/04/28 10:56:22;;;;;;;0.00;0.00;;;;;;;12.56;68.61;100038.16;5013858;28;20270;-76
2023/04/28 10:58:49;;;;;;;0.00;0.00;;;;;;;12.49;68.08;100027.75;5014338;28;20180;-77
2023/04/28 11:01:17;;;;;;;0.00;0.00;;;;;;;12.56;68.27;100033.50;5003262;28;20246;-77
2023/04/28 11:04:06;;;;;;;0.77;0.57;;;;;;;12.41;69.26;100034.88;4993392;28;20185;-77
2023/04/28 11:06:33;;;;;;;0.30;0.30;;;;;;;12.50;71.51;100043.06;5000356;28;20227;-77
2023/04/28 11:09:12;;;;;;;1.63;1.40;;;;;;;12.03;72.12;100034.19;5010155;28;20280;-76
2023/04/28 11:11:39;;;;;;;0.90;0.87;;;;;;;12.18;74.56;100055.53;4993512;28;20235;-76
2023/04/28 11:14:17;;;;;;;0.00;0.00;;;;;;;12.19;74.69;100037.97;5003016;28;20215;-77
2023/04/28 11:16:49;;;;;;;8.47;1.83;;;;;;;12.24;75.05;100026.81;5013532;28;20182;-77
2023/04/28 11:19:21;;;;;;;0.40;0.40;;;;;;;12.43;74.90;100016.19;5013728;28;20203;-77
2023/04/28 11:21:47;;;;;;;2.80;2.53;;;;;;;12.48;73.07;100013.25;5013837;28;20270;-77
2023/04/28 11:24:13;;;;;;;3.00;2.73;;;;;;;12.50;72.60;100004.69;5004932;28;20598;-77
2023/04/28 11:26:39;;;;;;;8.67;4.93;;;;;;;12.56;72.71;100008.03;4993180;28;20292;-77
2023/04/28 11:29:04;;;;;;;3.83;3.53;;;;;;;12.53;71.27;100006.75;4993853;28;20575;-77